createdAt,value
2019-03-24T00:00:14.945Z,50.67
2019-03-24T00:01:25.041Z,50.69
2019-03-24T00:02:33.016Z,50.73
2019-03-24T00:03:41.200Z,50.68
2019-03-24T00:04:49.235Z,50.43
2019-03-24T00:05:57.169Z,50.40
2019-03-24T00:07:05.136Z,50.41
2019-03-24T00:08:13.483Z,50.32
2019-03-24T00:09:21.587Z,50.54
2019-03-24T00:10:29.551Z,50.49
2019-03-24T00:11:37.859Z,50.68
2019-03-24T00:12:46.061Z,50.56
2019-03-24T00:13:54.700Z,50.58
2019-03-24T00:15:02.714Z,50.56
2019-03-24T00:16:10.985Z,50.39
2019-03-24T00:17:19.213Z,50.42
2019-03-24T00:18:27.228Z,50.46
2019-03-24T00:19:35.321Z,50.53
2019-03-24T00:20:43.330Z,50.31
2019-03-24T00:21:51.590Z,50.29
2019-03-24T00:22:59.572Z,50.50
2019-03-24T00:24:07.518Z,50.50
2019-03-24T00:25:15.673Z,50.65
2019-03-24T00:26:23.776Z,50.68
2019-03-24T00:27:32.104Z,50.54
2019-03-24T00:28:40.047Z,50.62
2019-03-24T00:29:48.065Z,50.67
2019-03-24T00:30:56.211Z,50.67
2019-03-24T00:32:04.342Z,50.83
2019-03-24T00:33:12.201Z,50.69
2019-03-24T00:34:20.194Z,50.70
2019-03-24T00:35:28.611Z,50.70
2019-03-24T00:36:36.607Z,50.74
2019-03-24T00:37:44.503Z,50.81
2019-03-24T00:38:52.494Z,50.76
2019-03-24T00:40:00.834Z,50.85
2019-03-24T00:41:09.009Z,50.98
2019-03-24T00:42:16.898Z,50.85
2019-03-24T00:43:25.228Z,51.04
2019-03-24T00:44:33.287Z,51.01
2019-03-24T00:45:41.509Z,51.04
2019-03-24T00:46:49.682Z,51.29
2019-03-24T00:47:59.944Z,51.14
2019-03-24T00:49:07.998Z,51.21
2019-03-24T00:50:16.242Z,51.39
2019-03-24T00:51:24.241Z,51.30
2019-03-24T00:52:32.345Z,51.28
2019-03-24T00:53:40.231Z,51.21
2019-03-24T00:54:48.240Z,51.22
2019-03-24T00:55:56.260Z,51.34
2019-03-24T00:57:04.636Z,51.39
2019-03-24T00:58:12.578Z,51.42
2019-03-24T00:59:20.915Z,51.48
2019-03-24T01:00:50.850Z,51.35
2019-03-24T01:01:59.027Z,51.44
2019-03-24T01:03:07.239Z,51.64
2019-03-24T01:04:17.085Z,51.72
2019-03-24T01:05:25.027Z,51.73
2019-03-24T01:06:32.890Z,51.75
2019-03-24T01:07:41.894Z,51.80
2019-03-24T01:08:50.075Z,51.76
2019-03-24T01:09:58.452Z,51.63
2019-03-24T01:11:06.899Z,51.57
2019-03-24T01:12:14.868Z,51.70
2019-03-24T01:13:22.715Z,51.60
2019-03-24T01:14:30.714Z,51.58
2019-03-24T01:15:47.330Z,51.58
2019-03-24T01:16:48.788Z,51.74
2019-03-24T01:17:57.441Z,51.75
2019-03-24T01:19:05.813Z,51.87
2019-03-24T01:20:14.010Z,51.96
2019-03-24T01:21:21.941Z,51.92
2019-03-24T01:22:30.205Z,51.90
2019-03-24T01:23:38.127Z,51.91
2019-03-24T01:24:46.274Z,52.06
2019-03-24T01:25:54.451Z,52.11
2019-03-24T01:27:02.853Z,52.40
2019-03-24T01:28:11.073Z,52.47
2019-03-24T01:29:18.813Z,52.68
2019-03-24T01:30:27.080Z,52.65
2019-03-24T01:31:35.400Z,52.60
2019-03-24T01:32:43.511Z,52.54
2019-03-24T01:33:51.576Z,52.50
2019-03-24T01:34:59.894Z,52.32
2019-03-24T01:36:08.097Z,52.25
2019-03-24T01:37:16.144Z,52.21
2019-03-24T01:38:24.289Z,52.19
2019-03-24T01:39:32.422Z,52.36
2019-03-24T01:40:40.462Z,52.36
2019-03-24T01:41:48.662Z,52.50
2019-03-24T01:42:56.719Z,52.65
2019-03-24T01:44:04.701Z,52.69
2019-03-24T01:45:12.949Z,52.80
2019-03-24T01:46:21.022Z,52.80
2019-03-24T01:47:29.114Z,52.80
2019-03-24T01:48:37.177Z,52.75
2019-03-24T01:49:45.316Z,52.64
2019-03-24T01:50:53.404Z,52.71
2019-03-24T01:52:01.420Z,52.60
2019-03-24T01:53:09.560Z,52.51
2019-03-24T01:54:17.849Z,52.64
2019-03-24T01:55:25.981Z,52.72
2019-03-24T01:56:34.452Z,52.86
2019-03-24T01:57:42.957Z,52.96
2019-03-24T01:58:51.162Z,53.03
2019-03-24T01:59:59.571Z,53.20
2019-03-24T02:01:07.875Z,53.29
2019-03-24T02:02:16.475Z,53.40
2019-03-24T02:03:24.660Z,53.53
2019-03-24T02:04:33.179Z,53.60
2019-03-24T02:05:41.468Z,53.51
2019-03-24T02:06:49.674Z,53.59
2019-03-24T02:07:58.086Z,53.44
2019-03-24T02:09:08.588Z,53.36
2019-03-24T02:10:16.961Z,53.31
2019-03-24T02:11:25.143Z,53.31
2019-03-24T02:12:33.145Z,53.29
2019-03-24T02:13:40.955Z,53.61
2019-03-24T02:14:48.812Z,53.62
2019-03-24T02:15:57.023Z,53.72
2019-03-24T02:17:05.320Z,53.63
2019-03-24T02:18:13.839Z,53.55
2019-03-24T02:19:22.156Z,54.01
2019-03-24T02:20:30.535Z,54.03
2019-03-24T02:21:38.637Z,54.06
2019-03-24T02:22:46.929Z,54.09
2019-03-24T02:23:55.578Z,54.00
2019-03-24T02:25:03.831Z,54.01
2019-03-24T02:26:11.888Z,54.11
2019-03-24T02:27:20.252Z,54.17
2019-03-24T02:28:28.325Z,54.24
2019-03-24T02:29:36.526Z,54.34
2019-03-24T02:30:45.236Z,54.13
2019-03-24T02:31:53.124Z,54.39
2019-03-24T02:33:01.471Z,54.50
2019-03-24T02:34:09.734Z,54.32
2019-03-24T02:35:18.116Z,54.44
2019-03-24T02:36:26.251Z,54.25
2019-03-24T02:37:34.540Z,54.53
2019-03-24T02:38:42.633Z,54.65
2019-03-24T02:39:50.829Z,54.98
2019-03-24T02:40:58.989Z,55.24
2019-03-24T02:42:06.940Z,55.35
2019-03-24T02:43:14.877Z,55.39
2019-03-24T02:44:23.118Z,55.86
2019-03-24T02:45:31.461Z,55.81
2019-03-24T02:46:39.779Z,55.88
2019-03-24T02:47:47.648Z,55.92
2019-03-24T02:48:56.028Z,55.92
2019-03-24T02:50:04.061Z,55.96
2019-03-24T02:51:12.325Z,56.04
2019-03-24T02:52:20.300Z,56.32
2019-03-24T02:53:28.508Z,56.22
2019-03-24T02:54:36.811Z,56.19
2019-03-24T02:55:44.907Z,56.24
2019-03-24T02:56:53.231Z,56.64
2019-03-24T02:58:01.570Z,56.89
2019-03-24T02:59:09.500Z,56.72
2019-03-24T03:00:19.908Z,56.85
2019-03-24T03:01:27.867Z,56.86
2019-03-24T03:02:36.048Z,56.83
2019-03-24T03:03:44.254Z,56.58
2019-03-24T03:04:52.238Z,56.46
2019-03-24T03:06:00.523Z,56.31
2019-03-24T03:07:08.962Z,56.16
2019-03-24T03:08:17.075Z,56.13
2019-03-24T03:09:25.113Z,56.04
2019-03-24T03:10:33.073Z,56.29
2019-03-24T03:11:41.417Z,56.21
2019-03-24T03:12:49.612Z,56.19
2019-03-24T03:13:57.610Z,56.21
2019-03-24T03:15:08.805Z,56.16
2019-03-24T03:16:16.722Z,56.24
2019-03-24T03:17:24.736Z,56.24
2019-03-24T03:18:32.538Z,56.03
2019-03-24T03:19:40.674Z,56.05
2019-03-24T03:20:48.514Z,56.13
2019-03-24T03:21:56.669Z,56.13
2019-03-24T03:23:04.652Z,55.97
2019-03-24T03:24:12.576Z,55.98
2019-03-24T03:25:20.551Z,55.93
2019-03-24T03:26:28.653Z,55.76
2019-03-24T03:27:36.785Z,55.69
2019-03-24T03:28:44.601Z,55.57
2019-03-24T03:29:52.455Z,55.53
2019-03-24T03:31:00.571Z,55.60
2019-03-24T03:32:08.644Z,55.51
2019-03-24T03:33:17.546Z,55.49
2019-03-24T03:34:25.921Z,55.53
2019-03-24T03:35:34.041Z,55.44
2019-03-24T03:36:42.318Z,55.43
2019-03-24T03:37:50.244Z,55.49
2019-03-24T03:38:58.566Z,55.54
2019-03-24T03:40:09.378Z,55.44
2019-03-24T03:41:17.607Z,55.53
2019-03-24T03:42:25.648Z,55.28
2019-03-24T03:43:33.801Z,55.40
2019-03-24T03:44:41.963Z,55.50
2019-03-24T03:45:49.843Z,55.35
2019-03-24T03:46:57.740Z,55.36
2019-03-24T03:48:05.975Z,55.31
2019-03-24T03:49:14.093Z,55.40
2019-03-24T03:50:22.185Z,55.60
2019-03-24T03:51:30.237Z,55.51
2019-03-24T03:52:38.359Z,55.52
2019-03-24T03:53:46.376Z,55.49
2019-03-24T03:54:56.105Z,55.57
2019-03-24T03:56:04.042Z,55.72
2019-03-24T03:57:12.311Z,55.68
2019-03-24T03:58:20.475Z,55.69
2019-03-24T03:59:28.537Z,55.61
2019-03-24T04:00:37.878Z,55.46
2019-03-24T04:01:45.759Z,55.14
2019-03-24T04:02:53.744Z,54.92
2019-03-24T04:04:01.602Z,54.87
2019-03-24T04:05:09.742Z,54.77
2019-03-24T04:06:17.782Z,54.78
2019-03-24T04:07:25.759Z,54.67
2019-03-24T04:08:33.567Z,54.52
2019-03-24T04:09:41.458Z,54.42
2019-03-24T04:10:49.359Z,54.41
2019-03-24T04:11:57.332Z,54.44
2019-03-24T04:13:05.463Z,54.28
2019-03-24T04:14:13.736Z,54.20
2019-03-24T04:15:21.684Z,54.27
2019-03-24T04:16:30.033Z,54.18
2019-03-24T04:17:38.121Z,54.08
2019-03-24T04:18:46.428Z,54.24
2019-03-24T04:19:54.431Z,54.21
2019-03-24T04:21:02.272Z,54.25
2019-03-24T04:22:10.327Z,54.29
2019-03-24T04:23:18.324Z,54.27
2019-03-24T04:24:26.304Z,54.30
2019-03-24T04:25:34.405Z,54.17
2019-03-24T04:26:42.576Z,54.21
2019-03-24T04:27:50.608Z,54.35
2019-03-24T04:28:58.548Z,54.33
2019-03-24T04:30:08.622Z,54.33
2019-03-24T04:31:16.615Z,54.30
2019-03-24T04:32:24.581Z,54.24
2019-03-24T04:33:32.421Z,54.25
2019-03-24T04:34:40.262Z,54.31
2019-03-24T04:35:48.598Z,54.41
2019-03-24T04:36:56.508Z,54.46
2019-03-24T04:38:04.600Z,54.43
2019-03-24T04:39:12.800Z,54.44
2019-03-24T04:40:20.996Z,54.52
2019-03-24T04:41:28.779Z,54.41
2019-03-24T04:42:36.681Z,54.32
2019-03-24T04:43:44.746Z,54.29
2019-03-24T04:44:52.618Z,54.29
2019-03-24T04:46:00.544Z,54.15
2019-03-24T04:47:16.300Z,54.11
2019-03-24T04:48:18.262Z,53.89
2019-03-24T04:49:26.268Z,53.85
2019-03-24T04:50:34.277Z,53.74
2019-03-24T04:51:41.989Z,53.80
2019-03-24T04:52:49.946Z,53.79
2019-03-24T04:53:57.839Z,53.79
2019-03-24T04:55:07.598Z,53.70
2019-03-24T04:56:15.589Z,53.70
2019-03-24T04:57:23.687Z,53.69
2019-03-24T04:58:31.871Z,53.75
2019-03-24T04:59:39.805Z,53.65
2019-03-24T05:00:47.861Z,53.57
2019-03-24T05:01:56.172Z,53.46
2019-03-24T05:03:04.272Z,53.50
2019-03-24T05:04:12.461Z,53.49
2019-03-24T05:05:20.555Z,53.48
2019-03-24T05:06:28.746Z,53.62
2019-03-24T05:07:36.992Z,53.59
2019-03-24T05:08:46.584Z,53.46
2019-03-24T05:09:55.333Z,53.52
2019-03-24T05:11:03.249Z,53.58
2019-03-24T05:12:11.385Z,53.50
2019-03-24T05:13:19.388Z,53.42
2019-03-24T05:14:27.173Z,53.35
2019-03-24T05:15:35.027Z,53.13
2019-03-24T05:16:43.062Z,53.13
2019-03-24T05:17:51.031Z,53.25
2019-03-24T05:18:59.151Z,53.24
2019-03-24T05:20:07.988Z,53.30
2019-03-24T05:21:16.149Z,53.46
2019-03-24T05:22:24.067Z,53.43
2019-03-24T05:23:32.253Z,53.43
2019-03-24T05:24:40.328Z,53.42
2019-03-24T05:25:48.651Z,53.32
2019-03-24T05:26:56.754Z,53.17
2019-03-24T05:28:04.781Z,53.24
2019-03-24T05:29:13.042Z,53.08
2019-03-24T05:30:21.140Z,53.20
2019-03-24T05:31:29.249Z,53.24
2019-03-24T05:32:37.435Z,53.31
2019-03-24T05:33:45.434Z,53.24
2019-03-24T05:34:53.363Z,53.33
2019-03-24T05:36:01.601Z,53.26
2019-03-24T05:37:09.844Z,53.26
2019-03-24T05:38:17.863Z,53.29
2019-03-24T05:39:26.140Z,53.28
2019-03-24T05:40:34.049Z,53.25
2019-03-24T05:41:42.010Z,53.25
2019-03-24T05:42:50.211Z,53.28
2019-03-24T05:43:58.730Z,53.27
2019-03-24T05:45:10.210Z,53.27
2019-03-24T05:46:18.340Z,53.27
2019-03-24T05:47:36.635Z,53.35
2019-03-24T05:48:36.305Z,53.22
2019-03-24T05:49:44.423Z,53.09
2019-03-24T05:50:52.522Z,53.03
2019-03-24T05:52:00.719Z,52.81
2019-03-24T05:53:08.736Z,52.48
2019-03-24T05:54:16.825Z,52.41
2019-03-24T05:55:24.992Z,52.19
2019-03-24T05:56:33.016Z,52.11
2019-03-24T05:57:40.896Z,52.00
2019-03-24T05:58:48.770Z,51.61
2019-03-24T05:59:56.942Z,51.87
2019-03-24T06:01:04.962Z,51.66
2019-03-24T06:02:13.007Z,51.56
2019-03-24T06:03:21.177Z,51.23
2019-03-24T06:04:29.290Z,51.32
2019-03-24T06:05:37.437Z,51.04
2019-03-24T06:06:45.474Z,50.80
2019-03-24T06:07:53.679Z,50.81
2019-03-24T06:09:02.029Z,50.51
2019-03-24T06:10:10.398Z,50.68
2019-03-24T06:11:18.560Z,50.59
2019-03-24T06:12:26.582Z,50.69
2019-03-24T06:13:35.132Z,50.53
2019-03-24T06:14:43.155Z,50.58
2019-03-24T06:15:51.448Z,50.36
2019-03-24T06:16:59.449Z,50.46
2019-03-24T06:18:07.591Z,50.36
2019-03-24T06:19:15.975Z,50.55
2019-03-24T06:20:24.047Z,50.35
2019-03-24T06:21:32.452Z,50.29
2019-03-24T06:22:40.828Z,50.15
2019-03-24T06:23:48.732Z,50.29
2019-03-24T06:24:59.012Z,50.11
2019-03-24T06:26:06.888Z,50.04
2019-03-24T06:27:15.013Z,49.90
2019-03-24T06:28:23.505Z,50.08
2019-03-24T06:29:31.866Z,49.95
2019-03-24T06:30:40.280Z,49.79
2019-03-24T06:31:48.803Z,49.80
2019-03-24T06:32:56.969Z,49.60
2019-03-24T06:34:05.045Z,49.21
2019-03-24T06:35:13.294Z,49.15
2019-03-24T06:36:21.522Z,49.07
2019-03-24T06:37:29.835Z,49.20
2019-03-24T06:38:38.206Z,48.96
2019-03-24T06:39:46.254Z,48.96
2019-03-24T06:40:54.495Z,48.81
2019-03-24T06:42:02.668Z,48.65
2019-03-24T06:43:10.757Z,48.80
2019-03-24T06:44:19.134Z,48.47
2019-03-24T06:45:28.751Z,48.65
2019-03-24T06:46:36.757Z,48.53
2019-03-24T06:47:45.035Z,48.08
2019-03-24T06:48:53.371Z,48.15
2019-03-24T06:50:01.700Z,48.09
2019-03-24T06:51:09.878Z,48.21
2019-03-24T06:52:18.115Z,48.34
2019-03-24T06:53:26.258Z,48.12
2019-03-24T06:54:34.274Z,47.99
2019-03-24T06:55:42.444Z,47.77
2019-03-24T06:56:50.522Z,47.92
2019-03-24T06:57:59.059Z,48.02
2019-03-24T06:59:07.405Z,47.79
2019-03-24T07:00:16.111Z,47.81
2019-03-24T07:01:24.155Z,47.96
2019-03-24T07:02:32.640Z,47.75
2019-03-24T07:03:40.669Z,47.62
2019-03-24T07:04:48.887Z,47.48
2019-03-24T07:05:57.423Z,47.54
2019-03-24T07:07:46.272Z,47.67
2019-03-24T07:08:54.650Z,47.46
2019-03-24T07:10:03.031Z,47.62
2019-03-24T07:11:13.907Z,47.51
2019-03-24T07:12:21.884Z,47.11
2019-03-24T07:13:30.592Z,47.22
2019-03-24T07:14:38.892Z,47.07
2019-03-24T07:15:46.943Z,47.08
2019-03-24T07:16:54.898Z,47.30
2019-03-24T07:18:08.397Z,47.26
2019-03-24T07:19:13.969Z,47.18
2019-03-24T07:20:22.064Z,47.00
2019-03-24T07:21:30.457Z,47.04
2019-03-24T07:22:38.695Z,46.93
2019-03-24T07:23:46.889Z,46.98
2019-03-24T07:24:55.060Z,46.90
2019-03-24T07:26:03.000Z,47.26
2019-03-24T07:27:10.954Z,47.22
2019-03-24T07:28:19.102Z,46.93
2019-03-24T07:29:27.248Z,46.81
2019-03-24T07:30:35.651Z,46.91
2019-03-24T07:31:43.546Z,46.97
2019-03-24T07:32:51.533Z,47.00
2019-03-24T07:33:59.654Z,46.94
2019-03-24T07:35:08.860Z,47.04
2019-03-24T07:36:17.050Z,46.87
2019-03-24T07:37:25.254Z,46.89
2019-03-24T07:38:33.762Z,46.34
2019-03-24T07:39:42.077Z,46.12
2019-03-24T07:40:49.938Z,46.16
2019-03-24T07:41:57.834Z,46.12
2019-03-24T07:43:05.944Z,46.04
2019-03-24T07:44:13.858Z,45.89
2019-03-24T07:45:22.018Z,45.56
2019-03-24T07:46:30.066Z,45.82
2019-03-24T07:47:38.211Z,45.95
2019-03-24T07:48:46.409Z,46.17
2019-03-24T07:49:54.318Z,46.19
2019-03-24T07:51:02.442Z,46.28
2019-03-24T07:52:11.010Z,46.34
2019-03-24T07:53:20.295Z,46.15
2019-03-24T07:54:28.166Z,46.06
2019-03-24T07:55:36.694Z,45.89
2019-03-24T07:56:44.624Z,45.87
2019-03-24T07:57:52.635Z,45.82
2019-03-24T07:59:01.041Z,45.69
2019-03-24T08:00:12.421Z,45.88
2019-03-24T08:01:20.387Z,45.72
2019-03-24T08:02:28.594Z,45.90
2019-03-24T08:03:36.379Z,45.97
2019-03-24T08:04:44.308Z,45.97
2019-03-24T08:05:52.277Z,46.00
2019-03-24T08:07:00.546Z,45.84
2019-03-24T08:08:08.671Z,45.88
2019-03-24T08:09:16.682Z,46.01
2019-03-24T08:10:24.559Z,45.90
2019-03-24T08:11:33.064Z,45.77
2019-03-24T08:12:41.281Z,45.81
2019-03-24T08:13:53.908Z,45.71
2019-03-24T08:15:00.088Z,45.49
2019-03-24T08:16:08.320Z,45.23
2019-03-24T08:17:16.322Z,45.48
2019-03-24T08:18:29.858Z,45.48
2019-03-24T08:19:34.098Z,45.69
2019-03-24T08:20:42.348Z,45.51
2019-03-24T08:21:50.440Z,45.50
2019-03-24T08:22:58.638Z,45.42
2019-03-24T08:24:06.771Z,45.31
2019-03-24T08:25:15.470Z,45.23
2019-03-24T08:26:23.547Z,44.95
2019-03-24T08:27:31.536Z,44.96
2019-03-24T08:28:39.974Z,44.90
2019-03-24T08:29:49.636Z,44.68
2019-03-24T08:30:57.806Z,44.54
2019-03-24T08:32:05.924Z,44.25
2019-03-24T08:33:14.199Z,44.19
2019-03-24T08:34:22.584Z,44.24
2019-03-24T08:35:30.831Z,44.04
2019-03-24T08:36:39.007Z,44.31
2019-03-24T08:37:47.155Z,44.38
2019-03-24T08:38:55.505Z,44.50
2019-03-24T08:40:04.090Z,44.56
2019-03-24T08:41:12.141Z,44.56
2019-03-24T08:42:20.587Z,44.05
2019-03-24T08:43:28.890Z,43.96
2019-03-24T08:44:36.963Z,43.86
2019-03-24T08:45:45.077Z,43.67
2019-03-24T08:46:53.073Z,43.87
2019-03-24T08:48:01.385Z,43.62
2019-03-24T08:49:09.991Z,43.76
2019-03-24T08:50:18.168Z,43.77
2019-03-24T08:51:26.699Z,43.14
2019-03-24T08:52:35.225Z,43.47
2019-03-24T08:53:43.392Z,43.35
2019-03-24T08:54:51.484Z,43.47
2019-03-24T08:55:59.433Z,43.83
2019-03-24T08:57:07.691Z,43.68
2019-03-24T08:58:15.905Z,43.39
2019-03-24T08:59:25.231Z,43.03
2019-03-24T09:00:33.455Z,42.59
2019-03-24T09:01:41.914Z,42.99
2019-03-24T09:02:50.176Z,43.41
2019-03-24T09:03:58.298Z,43.17
2019-03-24T09:05:08.311Z,43.10
2019-03-24T09:06:16.332Z,42.86
2019-03-24T09:07:24.460Z,42.48
2019-03-24T09:08:32.796Z,42.07
2019-03-24T09:09:41.595Z,41.76
2019-03-24T09:10:49.781Z,42.00
2019-03-24T09:11:57.780Z,41.74
2019-03-24T09:13:06.824Z,42.30
2019-03-24T09:14:15.316Z,42.24
2019-03-24T09:15:23.228Z,41.42
2019-03-24T09:16:31.655Z,41.42
2019-03-24T09:17:41.389Z,41.26
2019-03-24T09:18:52.873Z,41.45
2019-03-24T09:19:59.061Z,41.64
2019-03-24T09:21:07.580Z,41.49
2019-03-24T09:22:15.699Z,41.81
2019-03-24T09:23:23.874Z,41.38
2019-03-24T09:24:32.182Z,41.58
2019-03-24T09:25:40.728Z,40.72
2019-03-24T09:26:48.795Z,41.00
2019-03-24T09:27:57.095Z,40.81
2019-03-24T09:29:05.188Z,41.49
2019-03-24T09:30:34.973Z,41.16
2019-03-24T09:31:43.296Z,40.85
2019-03-24T09:32:51.513Z,40.52
2019-03-24T09:33:59.891Z,40.24
2019-03-24T09:35:08.875Z,40.67
2019-03-24T09:36:17.104Z,40.57
2019-03-24T09:37:25.109Z,39.64
2019-03-24T09:38:33.103Z,39.54
2019-03-24T09:39:41.582Z,39.54
2019-03-24T09:40:49.512Z,39.20
2019-03-24T09:41:57.500Z,39.08
2019-03-24T09:43:07.313Z,38.79
2019-03-24T09:44:15.526Z,38.90
2019-03-24T09:45:23.722Z,38.77
2019-03-24T09:46:31.757Z,39.03
2019-03-24T09:47:40.470Z,38.49
2019-03-24T09:48:48.531Z,38.71
2019-03-24T09:49:56.431Z,38.66
2019-03-24T09:51:04.603Z,37.73
2019-03-24T09:52:12.919Z,37.62
2019-03-24T09:53:20.973Z,37.96
2019-03-24T09:54:29.114Z,37.89
2019-03-24T09:55:37.295Z,37.08
2019-03-24T09:56:45.513Z,37.55
2019-03-24T09:57:53.616Z,37.35
2019-03-24T09:59:02.135Z,37.44
2019-03-24T10:00:11.084Z,36.65
2019-03-24T10:01:19.185Z,37.31
2019-03-24T10:02:27.273Z,37.33
2019-03-24T10:03:35.378Z,37.29
2019-03-24T10:04:43.620Z,37.33
2019-03-24T10:05:51.720Z,37.05
2019-03-24T10:07:00.005Z,37.25
2019-03-24T10:08:08.255Z,36.16
2019-03-24T10:09:16.315Z,36.60
2019-03-24T10:10:24.808Z,36.24
2019-03-24T10:11:33.224Z,36.68
2019-03-24T10:12:41.682Z,36.26
2019-03-24T10:13:49.842Z,35.95
2019-03-24T10:14:57.863Z,35.95
2019-03-24T10:16:06.013Z,35.54
2019-03-24T10:17:14.626Z,35.34
2019-03-24T10:18:23.089Z,35.21
2019-03-24T10:19:31.190Z,34.57
2019-03-24T10:20:39.324Z,34.56
2019-03-24T10:21:47.732Z,34.38
2019-03-24T10:22:55.937Z,34.32
2019-03-24T10:24:04.026Z,34.17
2019-03-24T10:25:12.474Z,34.21
2019-03-24T10:26:20.484Z,33.43
2019-03-24T10:27:28.733Z,33.21
2019-03-24T10:28:36.931Z,32.58
2019-03-24T10:29:45.281Z,32.74
2019-03-24T10:30:53.744Z,32.48
2019-03-24T10:32:01.915Z,31.83
2019-03-24T10:33:10.179Z,31.59
2019-03-24T10:34:18.951Z,31.42
2019-03-24T10:35:27.195Z,30.31
2019-03-24T10:36:35.349Z,29.69
2019-03-24T10:37:43.475Z,29.90
2019-03-24T10:38:51.546Z,29.81
2019-03-24T10:39:59.637Z,29.33
2019-03-24T10:41:07.646Z,29.77
2019-03-24T10:42:16.073Z,30.25
2019-03-24T10:43:24.066Z,29.90
2019-03-24T10:44:32.243Z,29.09
2019-03-24T10:45:40.170Z,28.87
2019-03-24T10:46:48.457Z,28.58
2019-03-24T10:47:56.617Z,28.61
2019-03-24T10:49:05.036Z,28.19
2019-03-24T10:50:14.755Z,28.13
2019-03-24T10:51:24.615Z,27.96
2019-03-24T10:52:33.131Z,27.42
2019-03-24T10:53:41.206Z,27.17
2019-03-24T10:54:49.569Z,26.47
2019-03-24T10:55:57.960Z,26.50
2019-03-24T10:57:06.583Z,25.86
2019-03-24T10:58:15.035Z,26.21
2019-03-24T10:59:23.078Z,26.05
2019-03-24T11:00:43.049Z,25.78
2019-03-24T11:01:51.200Z,25.77
2019-03-24T11:02:59.408Z,25.33
2019-03-24T11:04:08.215Z,24.94
2019-03-24T11:05:16.411Z,25.09
2019-03-24T11:06:24.619Z,24.77
2019-03-24T11:07:32.761Z,24.77
2019-03-24T11:08:40.908Z,24.28
2019-03-24T11:09:49.513Z,23.87
2019-03-24T11:10:57.729Z,23.52
2019-03-24T11:12:05.907Z,23.62
2019-03-24T11:13:15.372Z,23.54
2019-03-24T11:14:24.016Z,23.19
2019-03-24T11:15:32.095Z,23.04
2019-03-24T11:16:40.529Z,22.37
2019-03-24T11:17:48.784Z,22.64
2019-03-24T11:18:56.991Z,22.80
2019-03-24T11:20:08.566Z,22.49
2019-03-24T11:21:16.832Z,21.70
2019-03-24T11:22:25.107Z,21.94
2019-03-24T11:23:33.241Z,21.78
2019-03-24T11:24:41.667Z,21.83
2019-03-24T11:25:50.170Z,21.98
2019-03-24T11:26:58.241Z,21.36
2019-03-24T11:28:06.429Z,21.65
2019-03-24T11:29:14.582Z,21.70
2019-03-24T11:30:23.168Z,21.78
2019-03-24T11:31:31.730Z,21.61
2019-03-24T11:32:40.053Z,21.20
2019-03-24T11:33:48.871Z,21.52
2019-03-24T11:34:57.264Z,21.52
2019-03-24T11:36:05.936Z,21.31
2019-03-24T11:37:14.301Z,21.42
2019-03-24T11:38:22.984Z,21.33
2019-03-24T11:39:31.063Z,20.33
2019-03-24T11:40:39.201Z,20.58
2019-03-24T11:41:47.411Z,20.83
2019-03-24T11:42:55.397Z,20.90
2019-03-24T11:44:03.759Z,20.86
2019-03-24T11:45:14.349Z,20.62
2019-03-24T11:46:23.331Z,20.49
2019-03-24T11:47:31.382Z,20.66
2019-03-24T11:48:39.550Z,20.68
2019-03-24T11:49:49.429Z,20.13
2019-03-24T11:50:57.382Z,20.40
2019-03-24T11:52:07.123Z,20.46
2019-03-24T11:53:15.089Z,20.70
2019-03-24T11:54:23.411Z,20.41
2019-03-24T11:55:31.752Z,20.26
2019-03-24T11:56:40.104Z,20.08
2019-03-24T11:57:48.269Z,20.11
2019-03-24T11:58:56.259Z,19.51
2019-03-24T12:00:13.361Z,19.57
2019-03-24T12:01:21.730Z,19.49
2019-03-24T12:02:30.075Z,19.31
2019-03-24T12:03:38.032Z,19.50
2019-03-24T12:04:46.224Z,19.78
2019-03-24T12:05:54.622Z,19.67
2019-03-24T12:07:03.316Z,19.55
2019-03-24T12:08:11.545Z,19.26
2019-03-24T12:09:19.731Z,19.11
2019-03-24T12:10:28.017Z,19.38
2019-03-24T12:11:37.161Z,19.16
2019-03-24T12:12:45.381Z,19.36
2019-03-24T12:13:53.772Z,19.50
2019-03-24T12:15:01.867Z,19.54
2019-03-24T12:16:10.059Z,19.69
2019-03-24T12:17:19.093Z,19.17
2019-03-24T12:18:27.210Z,18.97
2019-03-24T12:19:35.353Z,18.96
2019-03-24T12:20:43.656Z,19.18
2019-03-24T12:21:52.486Z,19.35
2019-03-24T12:23:00.756Z,19.55
2019-03-24T12:24:08.804Z,19.52
2019-03-24T12:25:17.072Z,19.72
2019-03-24T12:26:25.481Z,19.16
2019-03-24T12:27:33.705Z,19.24
2019-03-24T12:28:42.271Z,19.03
2019-03-24T12:29:50.432Z,18.88
2019-03-24T12:30:59.434Z,18.78
2019-03-24T12:32:07.979Z,18.61
2019-03-24T12:33:16.533Z,18.49
2019-03-24T12:34:24.976Z,18.20
2019-03-24T12:35:32.846Z,18.19
2019-03-24T12:36:41.110Z,18.21
2019-03-24T12:37:49.338Z,18.06
2019-03-24T12:38:57.654Z,18.01
2019-03-24T12:40:08.596Z,17.71
2019-03-24T12:41:16.927Z,17.92
2019-03-24T12:42:25.016Z,17.68
2019-03-24T12:43:33.080Z,17.78
2019-03-24T12:44:41.457Z,17.86
2019-03-24T12:45:49.727Z,17.69
2019-03-24T12:46:58.125Z,18.02
2019-03-24T12:48:06.170Z,17.85
2019-03-24T12:49:14.338Z,17.78
2019-03-24T12:50:30.894Z,17.48
2019-03-24T12:51:32.245Z,17.58
2019-03-24T12:52:41.127Z,17.45
2019-03-24T12:53:49.198Z,17.49
2019-03-24T12:54:57.318Z,17.63
2019-03-24T12:56:05.642Z,17.59
2019-03-24T12:57:13.708Z,17.47
2019-03-24T12:58:23.060Z,17.22
2019-03-24T12:59:31.182Z,17.44
2019-03-24T13:00:40.622Z,17.36
2019-03-24T13:01:48.683Z,17.84
2019-03-24T13:02:56.995Z,17.96
2019-03-24T13:04:05.178Z,17.95
2019-03-24T13:05:13.901Z,18.15
2019-03-24T13:06:22.173Z,17.94
2019-03-24T13:07:30.363Z,17.95
2019-03-24T13:08:38.089Z,17.95
2019-03-24T13:09:46.276Z,17.92
2019-03-24T13:10:54.604Z,17.89
2019-03-24T13:12:02.706Z,17.96
2019-03-24T13:13:12.170Z,17.83
2019-03-24T13:14:20.832Z,17.88
2019-03-24T13:15:29.202Z,18.01
2019-03-24T13:16:37.310Z,17.88
2019-03-24T13:17:45.430Z,17.84
2019-03-24T13:18:53.627Z,18.02
2019-03-24T13:20:01.959Z,18.12
2019-03-24T13:21:09.897Z,18.11
2019-03-24T13:22:18.116Z,17.88
2019-03-24T13:23:26.055Z,17.85
2019-03-24T13:24:34.291Z,17.68
2019-03-24T13:25:42.509Z,17.66
2019-03-24T13:26:50.511Z,17.92
2019-03-24T13:27:58.918Z,17.95
2019-03-24T13:29:06.855Z,18.08
2019-03-24T13:30:15.363Z,18.26
2019-03-24T13:31:23.608Z,18.64
2019-03-24T13:32:31.610Z,18.69
2019-03-24T13:33:39.501Z,18.38
2019-03-24T13:34:47.566Z,18.41
2019-03-24T13:35:57.657Z,18.19
2019-03-24T13:37:05.885Z,18.18
2019-03-24T13:38:14.010Z,18.15
2019-03-24T13:39:21.926Z,18.29
2019-03-24T13:40:30.021Z,18.35
2019-03-24T13:41:38.103Z,18.28
2019-03-24T13:42:46.019Z,18.28
2019-03-24T13:43:54.141Z,18.40
2019-03-24T13:45:02.612Z,18.21
2019-03-24T13:46:10.912Z,18.34
2019-03-24T13:47:18.908Z,18.25
2019-03-24T13:48:26.990Z,17.92
2019-03-24T13:49:35.056Z,17.92
2019-03-24T13:50:43.303Z,17.94
2019-03-24T13:51:51.264Z,17.96
2019-03-24T13:52:59.602Z,17.67
2019-03-24T13:54:09.062Z,17.87
2019-03-24T13:55:17.105Z,18.07
2019-03-24T13:56:25.273Z,18.13
2019-03-24T13:57:33.262Z,18.02
2019-03-24T13:58:41.087Z,18.27
2019-03-24T13:59:49.205Z,18.30
2019-03-24T14:00:57.331Z,18.28
2019-03-24T14:02:06.057Z,18.41
2019-03-24T14:03:14.112Z,18.53
2019-03-24T14:04:22.146Z,18.92
2019-03-24T14:05:30.200Z,19.04
2019-03-24T14:06:38.134Z,19.18
2019-03-24T14:07:46.294Z,19.18
2019-03-24T14:08:54.514Z,19.29
2019-03-24T14:10:02.808Z,19.12
2019-03-24T14:11:10.773Z,19.46
2019-03-24T14:12:18.861Z,19.52
2019-03-24T14:13:26.823Z,19.25
2019-03-24T14:14:34.907Z,19.44
2019-03-24T14:15:44.003Z,19.23
2019-03-24T14:16:52.081Z,19.29
2019-03-24T14:18:00.583Z,19.19
2019-03-24T14:19:08.676Z,19.34
2019-03-24T14:20:17.333Z,19.39
2019-03-24T14:21:25.286Z,19.36
2019-03-24T14:22:33.572Z,19.23
2019-03-24T14:23:41.792Z,19.50
2019-03-24T14:24:49.829Z,19.37
2019-03-24T14:25:57.893Z,19.73
2019-03-24T14:27:06.290Z,19.68
2019-03-24T14:28:14.272Z,19.67
2019-03-24T14:29:22.286Z,19.77
2019-03-24T14:30:48.083Z,19.93
2019-03-24T14:31:56.203Z,19.88
2019-03-24T14:33:04.631Z,19.85
2019-03-24T14:34:12.716Z,19.72
2019-03-24T14:35:20.977Z,19.68
2019-03-24T14:36:29.037Z,19.61
2019-03-24T14:37:37.067Z,19.60
2019-03-24T14:38:45.192Z,19.78
2019-03-24T14:39:53.105Z,19.72
2019-03-24T14:41:01.402Z,19.68